MKC weather

Charles B. Wheeler Downtown Airport
Kansas City, Missouri, United States

Public forecast

Using degrees Fahrenheit for public forecast. Weather courtesy of forecast.io.

Current aviation weather report (METAR) for Charles B. Wheeler Downtown Airport

Retrieved 2019/10/16 22:54 UTC (43 minutes ago):

KMKC 162254Z 32003KT 10SM CLR 13/03 A3012 RMK AO2 SLP198 T01280033

Aviation forecast (TAF) for Charles B. Wheeler Downtown Airport

Retrieved 2019/10/16 18:22 UTC (5 hours ago):

TAF KMKC 161720Z 1618/1718 33010KT P6SM BKN025 FM162000 30008KT P6SM SKC FM170200 18005KT P6SM SKC